North Battleford, Canada
Current Conditions -  °F | °C
As of 1:00 PM on Thursday 23 Oct 2014 (Local Time) from CYQW Reporting Station
Clear Clear  
Wind Chill: 63°   Ceiling: Unl
Heat Index: 63°   Visibility: 9mi
Dew Point: 39°   Wind: 17mph
Humidity: 42%   Direction: 200°SSW
Pressure: 29.51"   Gusts: NA
Location:  52.78°N, 108.3°W
Report Text: CYQW 231900Z AUTO 20015KT 9SM CLR 17/04 A2951 RMK SLP003 DENSITY ALT 2900FT
Loading
Personal Weather Stations






























Interactive Weather Map
Tropical Storm Tracking
New forecast layout! Learn more

10-Day Weather Forecast

Advertisements
Track Severe Weather on mobile